createdAt,value
2019-04-22T00:00:53.876Z,4.80
2019-04-22T00:03:36.073Z,5.63
2019-04-22T00:06:19.057Z,5.47
2019-04-22T00:08:56.134Z,5.23
2019-04-22T00:11:38.336Z,5.13
2019-04-22T00:14:00.756Z,4.93
2019-04-22T00:16:47.661Z,5.47
2019-04-22T00:21:46.050Z,5.03
2019-04-22T00:24:18.786Z,5.77
2019-04-22T00:26:50.002Z,4.97
2019-04-22T00:29:42.554Z,5.50
2019-04-22T00:32:09.254Z,5.60
2019-04-22T00:34:42.666Z,5.70
2019-04-22T00:37:23.618Z,6.03
2019-04-22T00:39:53.912Z,5.57
2019-04-22T00:42:27.466Z,5.47
2019-04-22T00:47:32.490Z,5.10
2019-04-22T00:52:41.962Z,4.83
2019-04-22T00:55:23.191Z,5.37
2019-04-22T00:57:51.988Z,5.40
2019-04-22T01:00:17.711Z,5.20
2019-04-22T01:02:54.590Z,6.13
2019-04-22T01:05:27.812Z,6.00
2019-04-22T01:08:07.048Z,6.00
2019-04-22T01:10:40.730Z,6.13
2019-04-22T01:13:13.845Z,6.77
2019-04-22T01:15:47.010Z,5.73
2019-04-22T01:18:18.188Z,5.80
2019-04-22T01:23:26.192Z,6.07
2019-04-22T01:25:55.119Z,6.23
2019-04-22T01:28:23.819Z,6.00
2019-04-22T01:30:51.656Z,6.27
2019-04-22T01:33:25.989Z,6.20
2019-04-22T01:36:10.122Z,5.63
2019-04-22T01:38:46.891Z,5.93
2019-04-22T01:41:23.376Z,5.40
2019-04-22T01:46:31.574Z,6.30
2019-04-22T01:49:02.764Z,5.90
2019-04-22T01:51:47.145Z,6.30
2019-04-22T01:54:12.583Z,6.10
2019-04-22T01:56:40.893Z,6.37
2019-04-22T01:59:13.995Z,5.53
2019-04-22T02:01:49.988Z,6.50
2019-04-22T02:04:25.578Z,5.93
2019-04-22T02:06:59.166Z,5.73
2019-04-22T02:09:38.130Z,6.67
2019-04-22T02:12:05.905Z,6.00
2019-04-22T02:14:39.622Z,6.00
2019-04-22T02:17:17.535Z,5.43
2019-04-22T02:19:50.579Z,5.57
2019-04-22T02:22:27.553Z,5.63
2019-04-22T02:24:50.953Z,6.33
2019-04-22T02:27:29.407Z,5.43
2019-04-22T02:29:52.362Z,6.27
2019-04-22T02:32:59.085Z,6.23
2019-04-22T02:35:19.832Z,6.27
2019-04-22T02:37:35.911Z,5.90
2019-04-22T02:40:17.195Z,5.33
2019-04-22T02:42:52.195Z,6.20
2019-04-22T02:45:26.829Z,5.83
2019-04-22T02:47:58.537Z,5.50
2019-04-22T02:50:45.473Z,5.53
2019-04-22T02:53:03.647Z,5.80
2019-04-22T02:55:33.007Z,5.60
2019-04-22T02:58:06.262Z,5.60
2019-04-22T03:00:45.910Z,5.63
2019-04-22T03:03:41.370Z,5.87
2019-04-22T03:05:56.664Z,6.03
2019-04-22T03:11:07.374Z,5.70
2019-04-22T03:13:40.354Z,5.30
2019-04-22T03:18:53.539Z,5.47
2019-04-22T03:23:55.722Z,5.60
2019-04-22T03:28:51.415Z,5.67
2019-04-22T03:44:49.774Z,6.03
2019-04-22T03:49:56.454Z,6.07
2019-04-22T03:55:03.127Z,5.73
2019-04-22T04:00:08.241Z,6.43
2019-04-22T04:02:47.366Z,6.20
2019-04-22T04:05:10.486Z,6.00
2019-04-22T04:07:55.243Z,5.87
2019-04-22T04:10:27.818Z,5.70
2019-04-22T04:15:28.435Z,5.33
2019-04-22T04:17:57.109Z,5.73
2019-04-22T04:25:46.565Z,6.00
2019-04-22T04:28:31.620Z,5.73
2019-04-22T04:30:48.732Z,5.63
2019-04-22T04:33:23.545Z,6.50
2019-04-22T04:35:56.651Z,5.90
2019-04-22T04:38:32.167Z,6.70
2019-04-22T04:41:06.109Z,5.53
2019-04-22T04:46:13.745Z,6.20
2019-04-22T04:53:58.153Z,5.90
2019-04-22T04:56:30.410Z,6.27
2019-04-22T04:59:06.323Z,6.27
2019-04-22T05:01:30.884Z,6.30
2019-04-22T05:09:15.118Z,6.50
2019-04-22T05:11:53.778Z,6.93
2019-04-22T05:16:46.421Z,6.73
2019-04-22T05:19:20.849Z,6.90
2019-04-22T05:21:59.558Z,6.60
2019-04-22T05:27:08.103Z,6.63
2019-04-22T05:29:46.430Z,7.43
2019-04-22T05:32:09.288Z,6.07
2019-04-22T05:34:40.152Z,6.40
2019-04-22T05:37:14.720Z,6.90
2019-04-22T05:39:52.689Z,6.70
2019-04-22T05:42:17.811Z,6.73
2019-04-22T05:45:00.852Z,6.60
2019-04-22T05:47:25.656Z,6.87
2019-04-22T05:50:00.050Z,6.90
2019-04-22T05:52:34.142Z,6.73
2019-04-22T05:55:08.518Z,7.07
2019-04-22T05:57:38.851Z,7.40
2019-04-22T06:00:17.459Z,6.93
2019-04-22T06:05:17.360Z,6.20
2019-04-22T06:07:52.713Z,5.90
2019-04-22T06:10:33.439Z,6.67
2019-04-22T06:13:00.768Z,7.00
2019-04-22T06:15:34.194Z,6.40
2019-04-22T06:18:16.205Z,5.97
2019-04-22T06:21:03.994Z,6.70
2019-04-22T06:23:34.519Z,6.83
2019-04-22T06:28:40.703Z,6.40
2019-04-22T06:31:10.661Z,6.03
2019-04-22T06:33:40.502Z,6.40
2019-04-22T06:36:20.996Z,6.40
2019-04-22T06:38:59.039Z,7.00
2019-04-22T06:41:21.311Z,6.67
2019-04-22T06:43:59.809Z,6.40
2019-04-22T06:46:27.474Z,6.27
2019-04-22T06:49:05.622Z,6.43
2019-04-22T06:51:33.114Z,6.60
2019-04-22T06:54:11.655Z,6.40
2019-04-22T06:56:35.633Z,6.70
2019-04-22T06:59:14.829Z,8.00
2019-04-22T07:04:19.831Z,6.67
2019-04-22T07:06:56.535Z,6.47
2019-04-22T07:09:33.530Z,6.13
2019-04-22T07:11:58.828Z,6.07
2019-04-22T07:14:30.292Z,6.20
2019-04-22T07:17:07.335Z,6.27
2019-04-22T07:22:19.847Z,6.40
2019-04-22T07:27:22.442Z,6.27
2019-04-22T07:35:02.011Z,6.00
2019-04-22T07:37:39.001Z,5.90
2019-04-22T07:40:02.426Z,6.30
2019-04-22T07:45:17.829Z,6.93
2019-04-22T07:47:44.367Z,5.80
2019-04-22T07:52:51.895Z,6.13
2019-04-22T07:55:27.653Z,5.63
2019-04-22T07:58:01.727Z,5.80
2019-04-22T08:00:38.766Z,6.23
2019-04-22T08:03:14.896Z,5.47
2019-04-22T08:05:52.192Z,5.17
2019-04-22T08:08:21.497Z,6.03
2019-04-22T08:10:52.254Z,5.80
2019-04-22T08:13:25.398Z,5.40
2019-04-22T08:16:10.739Z,6.10
2019-04-22T08:21:07.652Z,5.70
2019-04-22T08:23:50.905Z,6.23
2019-04-22T08:26:05.486Z,5.70
2019-04-22T08:28:46.132Z,5.27
2019-04-22T08:31:25.117Z,6.10
2019-04-22T08:34:12.160Z,5.63
2019-04-22T08:36:26.287Z,5.67
2019-04-22T08:41:32.094Z,5.80
2019-04-22T08:46:56.202Z,5.40
2019-04-22T08:49:12.989Z,5.17
2019-04-22T08:51:42.423Z,5.30
2019-04-22T08:54:17.747Z,5.50
2019-04-22T08:56:52.418Z,5.40
2019-04-22T08:59:22.206Z,5.60
2019-04-22T09:02:04.880Z,5.60
2019-04-22T09:04:30.896Z,5.37
2019-04-22T09:12:14.305Z,4.90
2019-04-22T09:14:45.798Z,5.60
2019-04-22T09:17:21.397Z,5.47
2019-04-22T09:19:55.898Z,5.33
2019-04-22T09:22:26.198Z,5.30
2019-04-22T09:24:57.513Z,4.97
2019-04-22T09:27:41.257Z,5.07
2019-04-22T09:30:13.200Z,5.80
2019-04-22T09:32:45.486Z,5.60
2019-04-22T09:35:16.255Z,5.20
2019-04-22T09:38:19.198Z,5.03
2019-04-22T09:40:21.787Z,5.40
2019-04-22T09:42:56.017Z,5.00
2019-04-22T09:45:27.523Z,5.53
2019-04-22T09:48:08.315Z,6.30
2019-04-22T09:53:08.089Z,5.47
2019-04-22T09:55:41.726Z,5.50
2019-04-22T09:58:16.270Z,5.77
2019-04-22T10:01:24.560Z,5.30
2019-04-22T10:03:56.437Z,5.37
2019-04-22T10:09:22.707Z,5.87
2019-04-22T10:11:32.582Z,5.90
2019-04-22T10:16:39.335Z,5.90
2019-04-22T10:19:11.063Z,5.30
2019-04-22T10:21:54.525Z,5.53
2019-04-22T10:24:13.712Z,5.70
2019-04-22T10:29:43.581Z,5.13
2019-04-22T10:31:55.531Z,5.77
2019-04-22T10:34:18.750Z,5.27
2019-04-22T10:36:39.653Z,5.83
2019-04-22T10:39:12.676Z,5.17
2019-04-22T10:41:44.473Z,6.00
2019-04-22T10:44:17.310Z,4.83
2019-04-22T10:46:49.782Z,5.60
2019-04-22T10:49:22.397Z,5.00
2019-04-22T10:51:54.958Z,5.17
2019-04-22T10:54:27.416Z,5.13
2019-04-22T10:56:59.151Z,4.93
2019-04-22T10:59:32.204Z,5.57
2019-04-22T11:02:05.404Z,4.90
2019-04-22T11:04:38.662Z,5.17
2019-04-22T11:07:12.708Z,5.40
2019-04-22T11:09:52.008Z,5.30
2019-04-22T11:12:22.369Z,5.23
2019-04-22T11:14:51.719Z,4.70
2019-04-22T11:17:23.949Z,4.80
2019-04-22T11:19:55.666Z,4.50
2019-04-22T11:22:32.243Z,4.78
2019-04-22T11:25:01.646Z,5.17
2019-04-22T11:27:34.898Z,4.80
2019-04-22T11:30:08.049Z,5.30
2019-04-22T11:32:51.937Z,4.62
2019-04-22T11:35:23.856Z,4.97
2019-04-22T11:37:56.799Z,5.23
2019-04-22T11:40:35.731Z,4.53
2019-04-22T11:43:02.112Z,4.97
2019-04-22T11:45:35.258Z,4.30
2019-04-22T11:48:09.045Z,4.93
2019-04-22T11:50:42.105Z,4.50
2019-04-22T11:53:13.920Z,4.70
2019-04-22T11:55:46.780Z,4.33
2019-04-22T11:58:19.056Z,4.50
2019-04-22T12:00:51.979Z,4.30
2019-04-22T12:03:25.355Z,3.67
2019-04-22T12:05:57.804Z,3.93
2019-04-22T12:08:31.089Z,3.53
2019-04-22T12:11:05.870Z,3.60
2019-04-22T12:13:36.150Z,3.93
2019-04-22T12:16:07.802Z,3.93
2019-04-22T12:18:39.684Z,3.70
2019-04-22T12:21:13.026Z,4.03
2019-04-22T12:23:45.226Z,4.60
2019-04-22T12:26:19.177Z,3.73
2019-04-22T12:28:51.073Z,4.17
2019-04-22T12:31:23.770Z,3.93
2019-04-22T12:33:57.152Z,3.90
2019-04-22T12:36:29.084Z,3.90
2019-04-22T12:39:00.704Z,3.93
2019-04-22T12:41:34.000Z,3.80
2019-04-22T12:44:07.327Z,3.60
2019-04-22T12:46:41.858Z,3.30
2019-04-22T12:49:14.287Z,3.10
2019-04-22T12:51:47.328Z,3.03
2019-04-22T12:54:19.389Z,3.50
2019-04-22T12:56:51.494Z,3.30
2019-04-22T12:59:23.605Z,3.40
2019-04-22T13:01:55.377Z,3.13
2019-04-22T13:04:28.054Z,2.90
2019-04-22T13:06:59.929Z,3.90
2019-04-22T13:09:31.677Z,3.03
2019-04-22T13:12:03.384Z,3.10
2019-04-22T13:14:35.056Z,3.20
2019-04-22T13:17:08.166Z,3.63
2019-04-22T13:19:40.415Z,2.67
2019-04-22T13:22:14.532Z,3.60
2019-04-22T13:24:46.216Z,3.97
2019-04-22T13:27:19.325Z,3.60
2019-04-22T13:29:51.109Z,3.30
2019-04-22T13:32:22.876Z,3.50
2019-04-22T13:34:57.979Z,3.00
2019-04-22T13:37:28.618Z,3.97
2019-04-22T13:40:01.289Z,3.47
2019-04-22T13:42:35.470Z,3.33
2019-04-22T13:45:09.706Z,3.90
2019-04-22T13:48:01.515Z,3.60
2019-04-22T13:50:52.191Z,3.27
2019-04-22T13:55:52.787Z,3.23
2019-04-22T13:58:14.669Z,2.90
2019-04-22T14:00:34.473Z,3.67
2019-04-22T14:03:26.680Z,3.60
2019-04-22T14:06:00.819Z,3.10
2019-04-22T14:08:33.634Z,3.17
2019-04-22T14:11:19.518Z,2.67
2019-04-22T14:13:39.615Z,3.03
2019-04-22T14:16:13.171Z,3.40
2019-04-22T14:18:46.077Z,2.77
2019-04-22T14:21:18.786Z,3.00
2019-04-22T14:23:50.945Z,3.03
2019-04-22T14:26:23.104Z,3.20
2019-04-22T14:28:55.690Z,3.00
2019-04-22T14:31:28.683Z,2.93
2019-04-22T14:34:04.956Z,2.77
2019-04-22T14:36:35.276Z,3.03
2019-04-22T14:39:10.298Z,3.20
2019-04-22T14:41:55.960Z,2.97
2019-04-22T14:45:13.415Z,2.90
2019-04-22T14:47:13.716Z,2.90
2019-04-22T14:49:47.488Z,2.70
2019-04-22T14:52:21.262Z,3.23
2019-04-22T14:54:47.105Z,2.87
2019-04-22T14:57:07.348Z,2.90
2019-04-22T14:59:39.891Z,2.83
2019-04-22T15:02:13.857Z,2.83
2019-04-22T15:04:46.003Z,2.70
2019-04-22T15:07:19.067Z,3.00
2019-04-22T15:09:52.124Z,2.70
2019-04-22T15:12:31.029Z,2.70
2019-04-22T15:14:59.757Z,3.10
2019-04-22T15:17:47.203Z,3.07
2019-04-22T15:20:56.618Z,2.90
2019-04-22T15:23:28.709Z,2.70
2019-04-22T15:26:02.157Z,2.40
2019-04-22T15:28:35.440Z,2.80
2019-04-22T15:31:09.013Z,2.80
2019-04-22T15:33:45.231Z,2.77
2019-04-22T15:36:15.308Z,2.73
2019-04-22T15:38:47.204Z,3.37
2019-04-22T15:41:18.914Z,2.80
2019-04-22T15:43:51.956Z,2.60
2019-04-22T15:46:23.814Z,2.60
2019-04-22T15:48:55.974Z,2.57
2019-04-22T15:51:28.876Z,2.42
2019-04-22T15:54:01.458Z,2.87
2019-04-22T15:56:34.984Z,3.13
2019-04-22T15:59:28.703Z,3.27
2019-04-22T16:01:41.488Z,2.40
2019-04-22T16:04:14.852Z,2.80
2019-04-22T16:06:47.271Z,2.60
2019-04-22T16:09:18.945Z,2.63
2019-04-22T16:11:51.887Z,2.40
2019-04-22T16:14:31.211Z,2.50
2019-04-22T16:16:56.975Z,2.23
2019-04-22T16:19:28.695Z,2.40
2019-04-22T16:22:05.627Z,2.80
2019-04-22T16:24:52.139Z,2.70
2019-04-22T16:27:26.585Z,2.80
2019-04-22T16:29:59.279Z,2.50
2019-04-22T16:32:31.983Z,2.60
2019-04-22T16:35:04.395Z,3.07
2019-04-22T16:37:37.072Z,2.87
2019-04-22T16:40:09.344Z,2.70
2019-04-22T16:42:48.872Z,2.70
2019-04-22T16:45:16.075Z,2.90
2019-04-22T16:47:47.737Z,3.20
2019-04-22T16:50:20.943Z,3.20
2019-04-22T16:52:52.683Z,3.30
2019-04-22T16:55:24.275Z,2.77
2019-04-22T16:57:56.740Z,2.60
2019-04-22T17:00:28.901Z,3.03
2019-04-22T17:03:18.515Z,2.83
2019-04-22T17:06:13.879Z,3.00
2019-04-22T17:08:46.679Z,2.83
2019-04-22T17:11:20.003Z,4.00
2019-04-22T17:13:53.012Z,4.13
2019-04-22T17:16:26.265Z,4.53
2019-04-22T17:18:58.487Z,3.23
2019-04-22T17:21:30.230Z,2.97
2019-04-22T17:24:01.858Z,3.60
2019-04-22T17:26:34.529Z,7.13
2019-04-22T17:29:08.628Z,5.43
2019-04-22T17:31:47.679Z,3.10
2019-04-22T17:34:13.903Z,3.20
2019-04-22T17:36:46.243Z,4.03
2019-04-22T17:39:31.638Z,2.80
2019-04-22T17:42:08.355Z,3.40
2019-04-22T17:44:48.398Z,3.30
2019-04-22T17:47:41.055Z,3.80
2019-04-22T17:50:16.932Z,5.63
2019-04-22T17:53:03.613Z,6.97
2019-04-22T17:55:32.214Z,4.47
2019-04-22T17:58:05.570Z,3.10
2019-04-22T18:00:30.430Z,4.13
2019-04-22T18:03:00.807Z,3.73
2019-04-22T18:05:32.176Z,5.00
2019-04-22T18:08:11.696Z,5.80
2019-04-22T18:10:47.664Z,4.40
2019-04-22T18:13:27.832Z,5.77
2019-04-22T18:15:57.352Z,4.40
2019-04-22T18:18:35.534Z,3.97
2019-04-22T18:20:56.337Z,4.30
2019-04-22T18:23:20.832Z,4.40
2019-04-22T18:26:09.890Z,4.03
2019-04-22T18:28:47.942Z,4.67
2019-04-22T18:31:12.019Z,4.40
2019-04-22T18:33:45.197Z,4.90
2019-04-22T18:36:21.275Z,4.00
2019-04-22T18:39:00.684Z,4.97
2019-04-22T18:41:23.766Z,3.97
2019-04-22T18:44:07.992Z,3.57
2019-04-22T18:46:39.511Z,4.30
2019-04-22T18:49:08.225Z,4.10
2019-04-22T18:51:46.368Z,4.80
2019-04-22T18:54:36.617Z,4.50
2019-04-22T18:57:11.051Z,4.00
2019-04-22T18:59:33.820Z,4.27
2019-04-22T19:02:07.845Z,4.50
2019-04-22T19:04:44.339Z,3.87
2019-04-22T19:07:35.632Z,4.13
2019-04-22T19:10:11.937Z,4.23
2019-04-22T19:12:44.254Z,4.20
2019-04-22T19:15:09.324Z,3.97
2019-04-22T19:17:59.387Z,4.60
2019-04-22T19:20:23.802Z,6.23
2019-04-22T19:22:57.528Z,6.47
2019-04-22T19:25:17.270Z,6.00
2019-04-22T19:28:10.139Z,8.93
2019-04-22T19:30:36.918Z,4.33
2019-04-22T19:33:10.981Z,5.23
2019-04-22T19:35:34.994Z,4.53
2019-04-22T19:38:05.312Z,6.07
2019-04-22T19:40:58.207Z,6.67
2019-04-22T19:43:25.763Z,8.60
2019-04-22T19:45:54.632Z,14.40
2019-04-22T19:51:11.367Z,13.40
2019-04-22T19:53:41.384Z,4.67
2019-04-22T19:56:05.995Z,6.80
2019-04-22T19:58:37.375Z,4.70
2019-04-22T20:01:41.762Z,4.50
2019-04-22T20:04:52.560Z,4.17
2019-04-22T20:07:11.654Z,4.60
2019-04-22T20:09:49.398Z,4.93
2019-04-22T20:12:16.486Z,4.73
2019-04-22T20:14:51.098Z,4.30
2019-04-22T20:17:28.671Z,4.37
2019-04-22T20:20:06.312Z,4.00
2019-04-22T20:22:30.090Z,4.23
2019-04-22T20:24:53.792Z,4.10
2019-04-22T20:27:36.516Z,4.60
2019-04-22T20:30:13.703Z,4.40
2019-04-22T20:32:41.273Z,4.07
2019-04-22T20:35:20.912Z,4.30
2019-04-22T20:37:50.937Z,4.43
2019-04-22T20:40:32.006Z,4.20
2019-04-22T20:43:07.648Z,4.40
2019-04-22T20:45:36.432Z,4.47
2019-04-22T20:47:58.832Z,4.37
2019-04-22T20:50:41.706Z,4.23
2019-04-22T20:53:19.992Z,4.73
2019-04-22T20:55:47.882Z,3.93
2019-04-22T20:58:21.278Z,4.20
2019-04-22T21:00:47.328Z,4.50
2019-04-22T21:03:24.366Z,4.40
2019-04-22T21:05:52.611Z,4.50
2019-04-22T21:08:38.903Z,4.50
2019-04-22T21:11:04.403Z,4.00
2019-04-22T21:13:40.968Z,4.13
2019-04-22T21:16:23.216Z,4.33
2019-04-22T21:18:44.181Z,4.30
2019-04-22T21:21:29.637Z,4.17
2019-04-22T21:23:48.636Z,4.40
2019-04-22T21:26:29.712Z,4.10
2019-04-22T21:29:01.209Z,4.00
2019-04-22T21:31:52.717Z,4.30
2019-04-22T21:34:06.628Z,4.17
2019-04-22T21:36:41.548Z,4.93
2019-04-22T21:39:15.715Z,4.70
2019-04-22T21:41:48.647Z,4.00
2019-04-22T21:44:21.372Z,4.70
2019-04-22T21:47:03.409Z,4.37
2019-04-22T21:49:29.534Z,4.70
2019-04-22T21:51:58.387Z,5.00
2019-04-22T21:54:45.474Z,4.37
2019-04-22T21:57:28.236Z,4.57
2019-04-22T21:59:59.537Z,4.23
2019-04-22T22:05:00.148Z,4.73
2019-04-22T22:07:25.131Z,4.70
2019-04-22T22:10:09.915Z,4.20
2019-04-22T22:12:48.736Z,4.80
2019-04-22T22:15:20.265Z,4.53
2019-04-22T22:17:51.426Z,4.20
2019-04-22T22:20:25.665Z,4.57
2019-04-22T22:23:09.162Z,5.03
2019-04-22T22:25:34.909Z,4.93
2019-04-22T22:28:21.889Z,4.30
2019-04-22T22:33:17.382Z,4.73
2019-04-22T22:35:47.321Z,4.50
2019-04-22T22:38:19.458Z,4.47
2019-04-22T22:40:37.923Z,4.50
2019-04-22T22:43:17.152Z,4.83
2019-04-22T22:45:48.898Z,4.70
2019-04-22T22:48:41.669Z,4.43
2019-04-22T22:51:05.265Z,4.40
2019-04-22T22:53:45.780Z,5.07
2019-04-22T22:56:16.022Z,4.67
2019-04-22T22:58:45.571Z,4.73
2019-04-22T23:01:28.661Z,4.73
2019-04-22T23:03:57.028Z,5.57
2019-04-22T23:06:32.935Z,4.43
2019-04-22T23:09:05.738Z,4.60
2019-04-22T23:11:55.057Z,4.63
2019-04-22T23:14:06.937Z,4.97
2019-04-22T23:16:31.264Z,4.53
2019-04-22T23:19:06.662Z,5.30
2019-04-22T23:21:44.035Z,5.00
2019-04-22T23:24:44.165Z,4.90
2019-04-22T23:27:22.813Z,4.20
2019-04-22T23:30:05.380Z,4.83
2019-04-22T23:32:40.017Z,5.00
2019-04-22T23:35:33.873Z,4.87
2019-04-22T23:38:07.467Z,4.60
2019-04-22T23:40:44.378Z,5.20
2019-04-22T23:43:20.831Z,4.50
2019-04-22T23:45:50.498Z,4.90
2019-04-22T23:48:17.935Z,5.40
2019-04-22T23:51:06.071Z,4.87
2019-04-22T23:53:57.250Z,5.20
2019-04-22T23:56:07.863Z,5.03
2019-04-22T23:59:02.229Z,5.30
